Time;durP1;ratioP1;P1;durP2;ratioP2;P2;SDS_P1;SDS_P2;PMS_P1;PMS_P2;Temp;Humidity;BMP_temperature;BMP_pressure;BME280_temperature;BME280_humidity;BME280_pressure;Samples;Min_cycle;Max_cycle;Signal;HPM_P1;HPM_P2
2023/08/26 00:01:45;;;;;;;10.40;8.20;;;;;;;17.42;100.00;97318.34;110109;1241;69260;-67
2023/08/26 00:04:16;;;;;;;10.90;7.90;;;;;;;17.43;100.00;97316.73;110130;1246;59737;-69
2023/08/26 00:06:48;;;;;;;9.70;8.00;;;;;;;17.43;100.00;97315.29;110165;1243;59683;-69
2023/08/26 00:09:19;;;;;;;9.90;7.30;;;;;;;17.45;100.00;97311.26;110117;1241;70707;-69
2023/08/26 00:11:49;;;;;;;9.60;8.00;;;;;;;17.46;100.00;97307.62;110196;1244;68322;-69
2023/08/26 00:14:18;;;;;;;;;;;;;;;17.44;100.00;97302.27;110169;1246;69284;-69
2023/08/26 00:16:48;;;;;;;7.90;6.70;;;;;;;17.44;100.00;97305.61;110117;1244;59763;-68
2023/08/26 00:19:20;;;;;;;7.50;6.10;;;;;;;17.45;100.00;97304.88;110150;1245;59735;-68
2023/08/26 00:21:53;;;;;;;7.60;6.70;;;;;;;17.44;100.00;97304.21;110161;1244;71938;-68
2023/08/26 00:24:25;;;;;;;8.30;6.10;;;;;;;17.43;100.00;97305.91;110142;1245;68489;-69
2023/08/26 00:26:54;;;;;;;7.30;6.50;;;;;;;17.43;100.00;97308.80;110147;1245;69992;-69
2023/08/26 00:29:24;;;;;;;8.40;6.90;;;;;;;17.43;100.00;97308.44;110132;1244;59721;-68
2023/08/26 00:31:57;;;;;;;8.50;7.20;;;;;;;17.42;100.00;97309.02;110195;1245;59722;-69
2023/08/26 00:34:28;;;;;;;9.50;7.20;;;;;;;17.42;100.00;97311.34;110158;1245;71407;-69
2023/08/26 00:36:59;;;;;;;8.60;7.30;;;;;;;17.45;100.00;97309.99;110203;1245;68065;-69
2023/08/26 00:39:33;;;;;;;10.60;7.90;;;;;;;17.47;100.00;97310.64;110117;1243;68494;-69
2023/08/26 00:42:04;;;;;;;10.60;9.20;;;;;;;17.45;100.00;97312.77;110144;1241;59743;-68
2023/08/26 00:44:35;;;;;;;9.20;7.10;;;;;;;17.39;100.00;97314.79;110113;1243;59744;-69
2023/08/26 00:47:07;;;;;;;9.00;6.80;;;;;;;17.35;100.00;97314.70;110134;1245;71547;-69
2023/08/26 00:49:38;;;;;;;8.00;7.00;;;;;;;17.33;100.00;97314.52;110126;1241;69274;-69
2023/08/26 00:52:10;;;;;;;8.50;7.30;;;;;;;17.30;100.00;97311.40;110153;1241;68344;-69
2023/08/26 00:54:41;;;;;;;8.70;6.90;;;;;;;17.29;100.00;97307.30;110160;1245;59669;-68
2023/08/26 00:57:12;;;;;;;9.00;7.60;;;;;;;17.28;100.00;97304.95;110119;1245;59684;-68
2023/08/26 00:59:43;;;;;;;8.60;7.70;;;;;;;17.29;100.00;97302.27;110136;1241;71872;-69
2023/08/26 01:02:14;;;;;;;8.20;7.00;;;;;;;17.28;100.00;97306.20;110158;1244;68605;-68
2023/08/26 01:04:43;;;;;;;8.40;6.90;;;;;;;17.25;100.00;97303.55;110097;1241;68537;-68
2023/08/26 01:07:14;;;;;;;7.30;6.30;;;;;;;17.24;100.00;97296.74;110114;1243;59748;-69
2023/08/26 01:09:45;;;;;;;7.00;6.20;;;;;;;17.23;100.00;97297.05;110116;1245;59662;-70
2023/08/26 01:12:31;;;;;;;8.70;6.50;;;;;;;17.21;100.00;97291.94;110150;1244;71389;-70
2023/08/26 01:15:09;;;;;;;8.70;6.80;;;;;;;17.20;100.00;97289.41;110141;1241;68594;-69
2023/08/26 01:17:41;;;;;;;7.80;6.40;;;;;;;17.20;100.00;97291.23;110110;1245;68407;-69
2023/08/26 01:20:15;;;;;;;8.20;7.10;;;;;;;17.17;100.00;97289.36;110152;1242;59692;-69
2023/08/26 01:22:48;;;;;;;9.30;7.20;;;;;;;17.12;100.00;97292.53;110128;1244;60108;-69
2023/08/26 01:25:18;;;;;;;9.50;7.10;;;;;;;17.09;100.00;97291.59;110108;1243;71376;-69
2023/08/26 01:27:49;;;;;;;10.00;8.20;;;;;;;17.05;100.00;97292.03;110098;1241;68735;-69
2023/08/26 01:30:23;;;;;;;9.00;7.80;;;;;;;17.00;100.00;97287.64;110079;1244;68578;-68
2023/08/26 01:33:22;;;;;;;7.60;6.80;;;;;;;16.95;100.00;97286.31;110149;1243;60166;-69
2023/08/26 01:36:03;;;;;;;8.30;7.10;;;;;;;16.91;100.00;97288.51;110163;1244;59681;-69
2023/08/26 01:38:39;;;;;;;7.70;6.70;;;;;;;16.89;100.00;97286.83;110178;1243;71494;-70
2023/08/26 01:41:15;;;;;;;8.20;7.00;;;;;;;16.85;100.00;97284.03;110165;1241;67561;-69
2023/08/26 01:43:47;;;;;;;10.00;7.60;;;;;;;16.84;100.00;97281.84;110087;1245;68346;-69
2023/08/26 01:46:19;;;;;;;7.70;6.90;;;;;;;16.81;100.00;97282.81;110101;1241;59742;-69
2023/08/26 01:48:50;;;;;;;8.50;7.30;;;;;;;16.82;100.00;97283.46;110179;1244;59657;-69
2023/08/26 01:51:24;;;;;;;8.20;6.80;;;;;;;16.81;100.00;97287.89;110139;1244;70802;-69
2023/08/26 01:53:56;;;;;;;8.90;7.50;;;;;;;16.77;100.00;97285.95;110174;1244;69073;-68
2023/08/26 01:56:30;;;;;;;9.90;8.40;;;;;;;16.75;100.00;97293.20;110139;1245;68548;-69
2023/08/26 01:59:01;;;;;;;10.40;8.80;;;;;;;16.72;100.00;97289.66;110105;1241;59728;-69
2023/08/26 02:01:36;;;;;;;10.40;8.60;;;;;;;16.66;100.00;97281.31;110185;1245;59699;-68
2023/08/26 02:04:09;;;;;;;10.30;8.10;;;;;;;16.63;100.00;97278.93;110179;1244;71396;-69
2023/08/26 02:06:40;;;;;;;9.00;7.20;;;;;;;16.61;100.00;97273.75;110155;1245;68273;-69
2023/08/26 02:09:11;;;;;;;10.70;7.50;;;;;;;16.61;100.00;97270.52;110134;1244;70366;-69
2023/08/26 02:11:43;;;;;;;9.30;7.70;;;;;;;16.60;100.00;97262.06;110160;1244;59743;-70
2023/08/26 02:14:16;;;;;;;9.10;7.60;;;;;;;16.60;100.00;97262.95;110197;1241;59683;-69
2023/08/26 02:16:46;;;;;;;8.70;7.40;;;;;;;16.57;100.00;97265.11;110163;1244;70353;-70
2023/08/26 02:19:17;;;;;;;9.10;7.20;;;;;;;16.54;100.00;97262.02;110120;1245;69298;-69
2023/08/26 02:21:52;;;;;;;8.70;6.80;;;;;;;16.54;100.00;97265.23;110125;1246;68563;-70
2023/08/26 02:24:25;;;;;;;8.90;7.50;;;;;;;16.53;100.00;97259.50;110100;1241;60158;-70
2023/08/26 02:26:57;;;;;;;9.30;7.40;;;;;;;16.50;100.00;97258.39;110158;1244;59662;-70
2023/08/26 02:29:32;;;;;;;9.70;7.50;;;;;;;16.49;100.00;97262.33;110132;1241;71439;-69
2023/08/26 02:32:03;;;;;;;7.30;6.60;;;;;;;16.48;100.00;97260.23;110116;1244;69390;-68
2023/08/26 02:34:37;;;;;;;9.90;7.50;;;;;;;16.46;100.00;97263.04;110162;1246;69268;-69
2023/08/26 02:37:10;;;;;;;8.70;6.70;;;;;;;16.45;100.00;97261.19;110103;1245;59759;-68
2023/08/26 02:39:41;;;;;;;7.50;6.50;;;;;;;16.45;100.00;97263.52;110163;1251;59672;-68
2023/08/26 02:42:12;;;;;;;8.70;6.90;;;;;;;16.44;100.00;97266.94;110151;1244;70635;-69
2023/08/26 02:44:43;;;;;;;9.50;7.70;;;;;;;16.41;100.00;97263.91;110168;1244;69305;-68
2023/08/26 02:47:15;;;;;;;10.50;8.70;;;;;;;16.37;100.00;97263.36;110171;1241;69196;-70
2023/08/26 02:49:46;;;;;;;10.50;7.70;;;;;;;16.37;100.00;97265.86;110110;1241;59702;-69
2023/08/26 02:52:20;;;;;;;8.90;7.90;;;;;;;16.36;100.00;97267.98;110175;1244;59647;-69
2023/08/26 02:54:52;;;;;;;11.20;9.10;;;;;;;16.33;100.00;97265.40;110188;1244;71363;-70
2023/08/26 02:57:22;;;;;;;9.80;8.50;;;;;;;16.33;100.00;97263.69;110100;1244;69641;-69
2023/08/26 02:59:55;;;;;;;10.90;9.00;;;;;;;16.34;100.00;97263.26;110129;1244;69252;-69
2023/08/26 03:02:25;;;;;;;9.60;7.90;;;;;;;16.31;100.00;97259.75;110159;1244;59732;-69
2023/08/26 03:04:55;;;;;;;10.40;8.70;;;;;;;16.28;100.00;97261.77;110152;1244;59726;-69
2023/08/26 03:07:25;;;;;;;9.70;7.80;;;;;;;16.26;100.00;97263.61;110150;1241;71401;-69
2023/08/26 03:09:58;;;;;;;11.00;8.40;;;;;;;16.23;100.00;97265.86;110118;1241;69259;-69
2023/08/26 03:12:29;;;;;;;8.70;7.30;;;;;;;16.20;100.00;97265.30;110148;1247;69655;-70
2023/08/26 03:15:00;;;;;;;10.30;7.70;;;;;;;16.17;100.00;97264.02;110180;1241;59754;-69
2023/08/26 03:17:33;;;;;;;11.80;8.50;;;;;;;16.11;100.00;97261.52;110176;1243;59739;-70
2023/08/26 03:20:03;;;;;;;8.80;7.40;;;;;;;16.07;100.00;97264.77;110187;1244;71286;-70
2023/08/26 03:22:36;;;;;;;7.90;7.00;;;;;;;16.03;100.00;97267.40;110118;1244;69279;-70
2023/08/26 03:25:07;;;;;;;8.10;6.40;;;;;;;16.01;100.00;97274.50;110179;1241;69327;-69
2023/08/26 03:27:37;;;;;;;8.90;7.00;;;;;;;15.98;100.00;97277.96;110166;1244;59735;-70
2023/08/26 03:30:08;;;;;;;7.50;6.70;;;;;;;15.93;100.00;97279.33;110199;1244;59691;-70
2023/08/26 03:32:40;;;;;;;9.80;8.20;;;;;;;15.89;100.00;97280.60;110138;1244;71436;-70
2023/08/26 03:35:10;;;;;;;10.00;8.00;;;;;;;15.84;100.00;97282.88;110124;1243;69151;-69
2023/08/26 03:37:43;;;;;;;8.30;6.90;;;;;;;15.77;100.00;97278.89;110140;1241;69270;-69
2023/08/26 03:40:14;;;;;;;9.40;6.90;;;;;;;15.74;100.00;97281.67;110127;1244;59692;-68
2023/08/26 03:42:45;;;;;;;8.70;7.60;;;;;;;15.72;100.00;97279.05;110215;1244;59678;-70
2023/08/26 03:45:16;;;;;;;7.80;6.60;;;;;;;15.73;100.00;97281.98;110177;1243;71956;-70
2023/08/26 03:47:46;;;;;;;9.20;7.10;;;;;;;15.74;100.00;97276.21;110165;1244;68354;-70
2023/08/26 03:50:18;;;;;;;7.70;6.50;;;;;;;15.75;100.00;97274.20;110123;1245;69238;-70
2023/08/26 03:52:49;;;;;;;8.50;6.90;;;;;;;15.76;100.00;97276.34;110122;1241;60189;-69
2023/08/26 03:55:20;;;;;;;8.50;7.10;;;;;;;15.76;100.00;97283.20;110137;1241;59773;-68
2023/08/26 03:57:50;;;;;;;8.80;6.90;;;;;;;15.77;100.00;97283.08;110141;1244;71481;-69
2023/08/26 04:00:20;;;;;;;9.20;7.20;;;;;;;15.80;100.00;97290.21;110107;1245;68091;-70
2023/08/26 04:02:50;;;;;;;9.20;7.60;;;;;;;15.85;100.00;97291.73;110172;1243;68879;-70
2023/08/26 04:05:20;;;;;;;;;;;;;;;15.90;100.00;97291.95;110145;1241;59675;-69
2023/08/26 04:07:49;;;;;;;5.80;5.20;;;;;;;15.99;100.00;97295.09;110163;1243;59754;-69
2023/08/26 04:10:19;;;;;;;;;;;;;;;16.13;100.00;97297.23;110161;1244;71966;-69
2023/08/26 04:12:51;;;;;;;8.60;6.90;;;;;;;16.23;100.00;97294.45;110181;1244;68254;-68
2023/08/26 04:15:21;;;;;;;9.10;7.00;;;;;;;16.37;100.00;97295.60;109990;1246;69827;-70
2023/08/26 04:17:51;;;;;;;7.20;6.10;;;;;;;16.51;100.00;97300.35;110177;1243;59702;-67
2023/08/26 04:20:21;;;;;;;6.70;5.80;;;;;;;16.67;100.00;97307.76;110091;1245;59682;-68
2023/08/26 04:22:51;;;;;;;8.20;6.60;;;;;;;16.83;100.00;97313.75;110115;1244;72367;-69
2023/08/26 04:25:22;;;;;;;7.90;6.40;;;;;;;16.96;100.00;97320.58;110168;1243;69082;-70
2023/08/26 04:27:52;;;;;;;8.30;6.20;;;;;;;17.14;100.00;97323.68;110153;1245;69361;-69
2023/08/26 04:30:22;;;;;;;8.30;6.60;;;;;;;17.33;100.00;97322.58;110134;1243;59759;-68
2023/08/26 04:32:55;;;;;;;7.30;6.30;;;;;;;17.54;100.00;97322.04;110162;1243;59761;-69
2023/08/26 04:35:25;;;;;;;8.00;6.70;;;;;;;17.72;100.00;97316.69;110201;1243;71292;-68
2023/08/26 04:37:56;;;;;;;9.40;7.20;;;;;;;17.90;100.00;97310.57;110125;1243;68513;-69
2023/08/26 04:40:25;;;;;;;9.60;7.30;;;;;;;18.12;100.00;97306.20;110145;1244;69864;-69
2023/08/26 04:42:56;;;;;;;9.40;7.20;;;;;;;18.30;100.00;97303.87;110187;1244;59734;-69
2023/08/26 04:45:26;;;;;;;8.10;6.90;;;;;;;18.49;100.00;97303.63;110184;1241;60064;-69
2023/08/26 04:47:55;;;;;;;9.20;6.90;;;;;;;18.68;100.00;97305.92;110197;1245;70555;-70
2023/08/26 04:50:26;;;;;;;8.20;6.80;;;;;;;18.82;100.00;97305.56;110152;1244;69310;-70
2023/08/26 04:52:57;;;;;;;7.40;6.30;;;;;;;19.03;100.00;97301.91;110162;1241;68718;-69
2023/08/26 04:55:27;;;;;;;6.80;5.50;;;;;;;19.24;100.00;97298.73;110124;1244;59748;-70
2023/08/26 04:57:56;;;;;;;6.70;5.90;;;;;;;19.42;100.00;97304.20;110171;1244;59751;-69
2023/08/26 05:00:26;;;;;;;9.80;6.90;;;;;;;19.64;100.00;97300.48;110165;1241;70665;-69
2023/08/26 05:02:56;;;;;;;9.20;7.10;;;;;;;19.78;100.00;97302.26;110159;1244;69215;-69
2023/08/26 05:05:26;;;;;;;8.80;7.80;;;;;;;20.00;99.59;97299.17;110134;1245;68378;-69
2023/08/26 05:07:56;;;;;;;9.70;8.00;;;;;;;20.20;99.33;97301.25;110118;1244;60071;-69
2023/08/26 05:10:26;;;;;;;8.90;7.60;;;;;;;20.55;100.00;97296.61;110162;1244;59687;-69
2023/08/26 05:12:55;;;;;;;7.90;6.90;;;;;;;20.90;100.00;97304.06;110128;1245;70623;-69
2023/08/26 05:15:26;;;;;;;8.20;7.40;;;;;;;21.09;96.97;97304.94;110124;1244;69697;-68
2023/08/26 05:17:56;;;;;;;8.90;8.00;;;;;;;21.18;93.53;97300.95;110136;1243;68547;-70
2023/08/26 05:20:27;;;;;;;8.60;7.70;;;;;;;21.33;94.30;97301.41;110159;1241;59695;-68
2023/08/26 05:22:57;;;;;;;9.60;8.00;;;;;;;21.40;92.77;97299.63;110145;1241;59758;-67
2023/08/26 05:25:27;;;;;;;7.90;7.10;;;;;;;21.62;94.07;97297.45;110171;1244;71844;-69
2023/08/26 05:27:58;;;;;;;8.50;7.50;;;;;;;22.07;96.61;97289.23;110149;1241;69269;-69
2023/08/26 05:30:27;;;;;;;9.10;7.60;;;;;;;22.46;94.86;97288.36;110125;1244;69270;-69
2023/08/26 05:32:56;;;;;;;;;;;;;;;22.82;91.57;97290.62;110189;1244;59936;-67
2023/08/26 05:35:26;;;;;;;10.10;8.10;;;;;;;23.03;89.23;97290.84;110111;1245;59727;-69
2023/08/26 05:37:55;;;;;;;7.70;7.00;;;;;;;23.20;82.39;97289.90;110173;1243;72013;-70
2023/08/26 05:40:29;;;;;;;9.00;8.00;;;;;;;23.10;77.77;97288.38;110175;1242;70152;-69
2023/08/26 05:42:58;;;;;;;8.00;7.20;;;;;;;23.21;77.97;97286.99;110182;1242;69458;-69
2023/08/26 05:45:28;;;;;;;;;;;;;;;23.47;78.74;97286.51;110144;1244;59702;-69
2023/08/26 05:47:57;;;;;;;8.20;7.20;;;;;;;23.60;74.66;97291.73;110119;1241;59689;-68
2023/08/26 05:50:28;;;;;;;7.50;6.70;;;;;;;23.82;74.92;97287.89;110137;1243;71818;-68
2023/08/26 05:52:57;;;;;;;8.20;6.60;;;;;;;24.09;76.60;97285.29;110164;1243;69189;-69
2023/08/26 05:55:26;;;;;;;7.50;6.40;;;;;;;24.44;78.62;97283.14;110166;1248;68812;-69
2023/08/26 05:57:56;;;;;;;6.10;5.50;;;;;;;24.85;78.06;97283.42;110158;1243;59737;-67
2023/08/26 06:00:26;;;;;;;7.00;6.30;;;;;;;25.12;70.03;97284.60;110124;1244;59722;-68
2023/08/26 06:02:55;;;;;;;7.20;6.50;;;;;;;25.07;68.46;97286.98;110169;1245;70420;-69
2023/08/26 06:05:25;;;;;;;7.00;6.00;;;;;;;25.37;70.41;97294.29;110119;1241;68476;-68
2023/08/26 06:07:54;;;;;;;;;;;;;;;25.57;69.38;97292.52;110146;1244;69368;-69
2023/08/26 06:10:24;;;;;;;6.80;6.20;;;;;;;25.72;67.68;97294.19;110128;1245;59736;-69
2023/08/26 06:12:53;;;;;;;6.60;5.60;;;;;;;25.87;64.79;97303.18;110149;1244;59697;-69
2023/08/26 06:15:22;;;;;;;7.80;6.00;;;;;;;26.26;65.59;97311.17;110163;1244;72106;-69
2023/08/26 06:17:54;;;;;;;7.20;6.50;;;;;;;26.15;63.49;97311.10;110171;1244;69250;-70
2023/08/26 06:20:26;;;;;;;7.40;6.20;;;;;;;26.49;64.63;97304.20;110179;1244;68361;-69
2023/08/26 06:22:56;;;;;;;7.10;6.40;;;;;;;26.29;61.76;97310.67;110128;1244;59763;-68
2023/08/26 06:25:27;;;;;;;6.40;5.80;;;;;;;26.61;61.82;97308.14;110147;1244;59701;-70
2023/08/26 06:27:56;;;;;;;7.50;6.40;;;;;;;26.33;62.29;97308.67;110127;1241;71813;-69
2023/08/26 06:30:26;;;;;;;6.50;5.90;;;;;;;27.01;64.73;97303.12;110135;1244;69819;-69
2023/08/26 06:32:55;;;;;;;7.60;6.30;;;;;;;27.41;60.72;97306.39;110124;1244;69848;-69
2023/08/26 06:35:27;;;;;;;6.90;6.20;;;;;;;27.64;59.50;97319.10;110136;1243;60085;-69
2023/08/26 06:37:57;;;;;;;6.50;5.90;;;;;;;27.96;58.43;97321.39;110133;1244;59717;-70
2023/08/26 06:40:30;;;;;;;7.00;6.30;;;;;;;27.98;57.90;97318.38;110111;1244;71844;-69
2023/08/26 06:43:04;;;;;;;6.90;6.20;;;;;;;27.80;57.84;97320.76;110109;1241;68114;-69
2023/08/26 06:45:36;;;;;;;8.20;7.40;;;;;;;27.80;57.97;97323.24;110138;1250;69517;-68
2023/08/26 06:48:06;;;;;;;7.30;6.40;;;;;;;27.94;56.60;97322.72;110141;1241;60092;-68
2023/08/26 06:50:37;;;;;;;7.10;5.90;;;;;;;27.89;56.66;97323.60;110117;1243;59691;-68
2023/08/26 06:53:06;;;;;;;6.30;5.50;;;;;;;28.20;55.34;97323.91;110155;1243;71424;-68
2023/08/26 06:55:36;;;;;;;6.10;5.40;;;;;;;28.28;54.65;97327.10;110189;1241;69441;-68
2023/08/26 06:58:07;;;;;;;6.40;5.80;;;;;;;28.38;54.23;97323.69;110182;1244;68403;-68
2023/08/26 07:00:36;;;;;;;7.40;6.50;;;;;;;28.38;54.82;97323.23;110148;1242;59669;-68
2023/08/26 07:03:08;;;;;;;7.50;6.80;;;;;;;28.37;54.34;97323.38;110169;1241;60052;-68
2023/08/26 07:05:41;;;;;;;7.00;6.00;;;;;;;28.58;54.20;97319.66;109599;1244;726142;-67
2023/08/26 07:08:13;;;;;;;6.10;5.50;;;;;;;28.96;53.25;97322.42;110168;1245;69244;-68
2023/08/26 07:10:45;;;;;;;6.40;5.30;;;;;;;29.06;51.87;97324.19;110152;1243;70029;-69
2023/08/26 07:13:14;;;;;;;7.00;6.30;;;;;;;29.21;51.56;97321.55;110169;1245;59750;-69
2023/08/26 07:15:44;;;;;;;7.00;5.90;;;;;;;29.07;51.17;97320.63;110159;1245;59678;-68
2023/08/26 07:18:13;;;;;;;6.20;5.60;;;;;;;29.03;51.61;97321.96;110142;1243;71854;-68
2023/08/26 07:20:45;;;;;;;7.00;5.40;;;;;;;29.18;50.74;97320.14;110173;1250;69822;-68
2023/08/26 07:23:14;;;;;;;5.70;5.20;;;;;;;29.54;51.14;97318.63;110156;1243;68499;-68
2023/08/26 07:25:43;;;;;;;6.30;5.30;;;;;;;29.85;49.87;97322.98;110149;1241;59667;-68
2023/08/26 07:28:13;;;;;;;6.60;5.70;;;;;;;30.21;50.29;97323.70;110158;1242;59676;-69
2023/08/26 07:30:42;;;;;;;6.40;5.30;;;;;;;30.19;48.10;97318.59;110163;1244;70811;-69
2023/08/26 07:33:11;;;;;;;6.30;5.40;;;;;;;30.43;48.88;97321.40;110194;1243;68475;-69
2023/08/26 07:35:40;;;;;;;5.30;4.80;;;;;;;30.87;47.66;97315.91;110119;1245;70253;-68
2023/08/26 07:38:09;;;;;;;6.00;5.40;;;;;;;30.88;46.14;97311.13;110133;1243;59695;-68
2023/08/26 07:40:38;;;;;;;6.30;5.40;;;;;;;30.73;46.03;97310.91;110158;1243;59695;-69
2023/08/26 07:43:07;;;;;;;5.60;5.10;;;;;;;30.75;46.45;97312.08;110177;1243;71639;-69
2023/08/26 07:45:36;;;;;;;5.40;4.90;;;;;;;30.92;46.33;97311.56;110172;1241;69078;-67
2023/08/26 07:48:07;;;;;;;6.90;5.30;;;;;;;31.38;45.78;97311.56;110147;1243;68539;-68
2023/08/26 07:50:39;;;;;;;5.90;5.30;;;;;;;31.11;45.84;97317.73;110104;1241;59758;-68
2023/08/26 07:53:08;;;;;;;5.90;5.30;;;;;;;31.26;45.18;97321.01;110165;1244;59688;-68
2023/08/26 07:55:38;;;;;;;6.80;5.60;;;;;;;31.48;45.00;97320.86;110111;1241;71295;-68
2023/08/26 07:58:06;;;;;;;5.30;4.70;;;;;;;30.98;45.26;97323.52;110172;1241;69287;-68
2023/08/26 08:00:36;;;;;;;6.50;5.30;;;;;;;31.08;45.37;97319.25;110152;1243;69848;-68
2023/08/26 08:03:06;;;;;;;5.20;4.60;;;;;;;31.65;44.28;97317.95;110119;1241;59712;-66
2023/08/26 08:05:35;;;;;;;5.60;4.60;;;;;;;31.94;43.99;97312.58;110192;1241;59737;-69
2023/08/26 08:08:05;;;;;;;6.50;5.80;;;;;;;32.19;43.26;97310.52;110094;1241;71315;-67
2023/08/26 08:10:34;;;;;;;5.40;4.90;;;;;;;32.20;43.16;97308.63;110138;1241;69419;-66
2023/08/26 08:13:04;;;;;;;5.80;5.30;;;;;;;32.52;42.45;97310.63;110092;1244;69247;-66
2023/08/26 08:15:33;;;;;;;7.20;6.10;;;;;;;32.67;41.52;97308.67;110136;1245;59709;-68
2023/08/26 08:18:03;;;;;;;5.30;4.80;;;;;;;32.04;42.43;97310.42;110122;1241;60082;-67
2023/08/26 08:20:32;;;;;;;5.90;4.80;;;;;;;32.21;42.32;97313.23;110141;1241;72051;-69
2023/08/26 08:23:02;;;;;;;5.50;4.90;;;;;;;32.36;42.65;97313.60;110119;1244;69077;-69
2023/08/26 08:25:32;;;;;;;5.20;4.70;;;;;;;32.83;41.25;97315.73;110134;1241;69288;-69
2023/08/26 08:28:02;;;;;;;5.70;5.00;;;;;;;33.20;40.55;97321.59;110089;1241;59664;-68
2023/08/26 08:30:31;;;;;;;5.40;4.70;;;;;;;33.00;40.70;97321.08;110207;1241;59740;-68
2023/08/26 08:33:00;;;;;;;6.00;5.40;;;;;;;33.11;39.65;97318.35;110121;1241;71348;-68
2023/08/26 08:35:30;;;;;;;5.50;5.00;;;;;;;33.56;38.95;97315.10;110184;1242;69909;-68
2023/08/26 08:37:59;;;;;;;5.80;4.60;;;;;;;33.69;39.15;97315.14;110146;1241;69077;-68
2023/08/26 08:40:27;;;;;;;5.70;5.10;;;;;;;34.43;38.22;97314.73;110129;1244;59752;-68
2023/08/26 08:42:58;;;;;;;5.10;4.60;;;;;;;34.86;36.87;97310.02;110175;1245;59731;-68
2023/08/26 08:45:28;;;;;;;5.40;4.10;;;;;;;35.34;36.99;97306.19;110131;1241;71810;-67
2023/08/26 08:47:58;;;;;;;5.90;5.30;;;;;;;35.87;36.34;97303.61;110186;1244;69632;-69
2023/08/26 08:50:30;;;;;;;5.80;5.00;;;;;;;35.47;35.30;97303.23;110191;1241;68303;-68
2023/08/26 08:53:01;;;;;;;5.40;4.90;;;;;;;35.23;35.19;97304.23;110183;1241;59757;-68
2023/08/26 08:55:30;;;;;;;5.20;4.70;;;;;;;35.54;34.79;97302.96;110143;1243;59621;-69
2023/08/26 08:58:00;;;;;;;5.00;4.50;;;;;;;34.71;35.33;97307.87;110111;1244;71787;-71
2023/08/26 09:00:30;;;;;;;5.50;4.30;;;;;;;35.01;35.15;97303.25;110167;1241;69276;-68
2023/08/26 09:03:06;;;;;;;5.70;5.20;;;;;;;35.60;35.13;97303.61;110158;1241;69141;-67
2023/08/26 09:05:36;;;;;;;6.10;5.50;;;;;;;35.66;35.12;97302.57;110208;1242;59725;-67
2023/08/26 09:08:08;;;;;;;6.20;5.60;;;;;;;36.14;34.36;97301.80;110163;1241;59663;-67
2023/08/26 09:10:37;;;;;;;6.10;5.50;;;;;;;36.30;33.34;97300.23;110194;1244;71200;-67
2023/08/26 09:13:06;;;;;;;5.30;4.80;;;;;;;35.98;33.41;97295.67;110160;1244;69306;-66
2023/08/26 09:15:35;;;;;;;6.20;5.60;;;;;;;35.64;34.02;97296.52;110174;1241;69328;-68
2023/08/26 09:18:11;;;;;;;5.20;4.70;;;;;;;35.73;33.25;97297.22;110091;1244;59765;-67
2023/08/26 09:20:41;;;;;;;4.70;4.20;;;;;;;35.17;34.92;97293.36;110197;1241;59703;-68
2023/08/26 09:23:09;;;;;;;4.60;4.20;;;;;;;35.26;34.92;97296.45;110195;1241;71969;-67
2023/08/26 09:25:49;;;;;;;4.60;4.20;;;;;;;35.87;34.37;97294.14;110170;1241;69735;-67
2023/08/26 09:28:19;;;;;;;5.40;4.60;;;;;;;36.24;33.25;97294.71;110167;1241;69103;-67
2023/08/26 09:31:05;;;;;;;4.60;4.20;;;;;;;37.13;32.28;97291.14;110162;1241;59666;-67
2023/08/26 09:33:34;;;;;;;5.20;4.70;;;;;;;37.75;31.90;97293.62;110176;1245;59676;-66
2023/08/26 09:36:04;;;;;;;5.10;4.60;;;;;;;38.45;30.95;97294.77;110134;1243;71958;-69
2023/08/26 09:38:47;;;;;;;3.90;3.50;;;;;;;38.42;30.67;97295.50;110121;1241;69483;-67
2023/08/26 09:41:21;;;;;;;5.30;4.30;;;;;;;38.21;30.28;97288.12;110213;1244;69286;-64
2023/08/26 09:43:50;;;;;;;5.20;4.70;;;;;;;38.29;29.86;97292.02;110174;1241;59691;-67
2023/08/26 09:46:21;;;;;;;4.90;4.40;;;;;;;38.72;28.67;97289.30;110192;1241;59696;-70
2023/08/26 09:48:50;;;;;;;5.00;4.50;;;;;;;38.17;29.09;97288.95;110192;1241;71385;-68
2023/08/26 09:51:30;;;;;;;5.30;4.80;;;;;;;38.25;29.05;97283.10;110176;1241;69210;-68
2023/08/26 09:53:59;;;;;;;5.30;4.50;;;;;;;36.90;30.56;97280.84;110145;1241;69115;-67
2023/08/26 09:56:28;;;;;;;4.50;3.90;;;;;;;36.73;31.62;97278.39;110186;1241;60131;-68
2023/08/26 09:58:57;;;;;;;4.40;4.00;;;;;;;37.71;30.16;97275.83;110148;1244;59696;-66
2023/08/26 10:01:27;;;;;;;4.90;4.00;;;;;;;37.97;29.36;97276.63;110213;1241;71782;-66
2023/08/26 10:04:08;;;;;;;6.50;4.60;;;;;;;38.66;28.74;97273.56;110151;1243;68469;-67
2023/08/26 10:06:55;;;;;;;5.20;4.70;;;;;;;38.85;28.02;97274.27;110166;1243;69916;-68
2023/08/26 10:09:45;;;;;;;3.80;3.40;;;;;;;38.62;27.75;97270.13;110129;1244;59631;-68
2023/08/26 10:12:21;;;;;;;4.50;4.10;;;;;;;39.01;27.40;97268.05;110168;1244;59692;-67
2023/08/26 10:14:53;;;;;;;4.30;3.80;;;;;;;39.73;27.13;97261.22;110129;1243;71968;-68
2023/08/26 10:17:25;;;;;;;5.50;5.00;;;;;;;39.04;27.39;97261.82;110132;1241;69311;-67
2023/08/26 10:19:56;;;;;;;4.40;4.00;;;;;;;38.79;27.59;97259.16;110114;1241;69753;-65
2023/08/26 10:22:25;;;;;;;3.90;3.50;;;;;;;38.78;27.55;97256.71;110133;1244;59674;-66
2023/08/26 10:24:54;;;;;;;4.40;4.00;;;;;;;39.33;26.52;97252.50;110136;1244;59662;-67
2023/08/26 10:27:23;;;;;;;4.90;4.50;;;;;;;39.18;27.05;97250.05;110192;1241;71255;-67
2023/08/26 10:29:54;;;;;;;5.70;4.90;;;;;;;39.04;27.00;97250.38;110136;1243;69307;-67
2023/08/26 10:32:27;;;;;;;4.30;3.90;;;;;;;38.79;27.07;97249.89;110151;1243;69685;-67
2023/08/26 10:34:58;;;;;;;5.30;4.50;;;;;;;39.02;27.29;97251.05;110187;1241;59769;-67
2023/08/26 10:37:31;;;;;;;6.90;5.30;;;;;;;38.01;27.58;97249.30;110182;1243;59709;-67
2023/08/26 10:40:12;;;;;;;5.80;5.00;;;;;;;38.43;27.50;97248.05;110149;1241;71981;-67
2023/08/26 10:43:08;;;;;;;4.90;4.50;;;;;;;38.18;28.29;97249.20;110141;1244;69086;-67
2023/08/26 10:45:47;;;;;;;4.70;4.20;;;;;;;38.41;29.04;97249.93;110183;1241;69270;-67
2023/08/26 10:48:18;;;;;;;4.40;4.00;;;;;;;38.62;28.12;97250.46;110144;1241;59633;-67
2023/08/26 10:51:01;;;;;;;3.90;3.50;;;;;;;38.77;27.92;97247.70;110150;1244;59734;-67
2023/08/26 10:53:42;;;;;;;4.40;4.00;;;;;;;39.80;27.37;97239.59;110199;1244;71978;-68
2023/08/26 10:56:18;;;;;;;5.30;4.80;;;;;;;39.67;26.72;97237.69;110190;1241;69624;-68
2023/08/26 10:58:48;;;;;;;5.60;4.70;;;;;;;40.07;27.25;97237.33;110141;1241;69883;-69
2023/08/26 11:01:17;;;;;;;4.90;4.40;;;;;;;40.34;25.85;97236.60;110158;1244;59681;-67
2023/08/26 11:03:46;;;;;;;5.40;4.70;;;;;;;40.18;25.89;97230.08;110153;1245;59734;-67
2023/08/26 11:06:22;;;;;;;4.90;4.30;;;;;;;39.89;25.93;97231.02;110172;1241;71331;-68
2023/08/26 11:08:56;;;;;;;4.50;4.00;;;;;;;39.55;26.49;97228.36;110154;1243;68814;-68
2023/08/26 11:11:26;;;;;;;5.50;5.00;;;;;;;40.16;25.82;97229.42;110170;1242;69860;-68
2023/08/26 11:13:55;;;;;;;4.00;3.60;;;;;;;39.69;26.61;97226.60;110160;1243;59680;-68
2023/08/26 11:16:24;;;;;;;3.40;3.10;;;;;;;39.57;26.80;97227.71;110158;1243;59672;-67
2023/08/26 11:18:53;;;;;;;5.10;4.20;;;;;;;40.23;26.25;97226.30;110191;1241;72312;-67
2023/08/26 11:21:23;;;;;;;3.20;2.90;;;;;;;41.01;24.96;97221.06;110167;1241;69089;-67
2023/08/26 11:23:54;;;;;;;4.10;3.30;;;;;;;41.49;25.34;97218.91;110212;1245;69282;-66
2023/08/26 11:26:24;;;;;;;4.90;4.40;;;;;;;41.50;24.18;97213.02;110185;1242;59738;-66
2023/08/26 11:28:53;;;;;;;5.60;4.00;;;;;;;40.92;24.47;97215.58;110186;1241;59750;-67
2023/08/26 11:31:24;;;;;;;4.50;4.10;;;;;;;41.50;24.56;97208.28;110102;1243;71381;-67
2023/08/26 11:33:54;;;;;;;4.40;3.50;;;;;;;41.34;25.72;97212.04;110184;1245;68347;-67
2023/08/26 11:36:24;;;;;;;3.70;3.40;;;;;;;41.13;25.88;97205.16;110180;1241;69713;-67
2023/08/26 11:38:53;;;;;;;3.90;3.40;;;;;;;41.40;25.44;97205.68;110131;1244;59815;-66
2023/08/26 11:41:22;;;;;;;3.70;3.30;;;;;;;41.56;25.15;97203.17;110173;1244;59678;-67